This is the latest recevied weather packets stored in our database for station/object OM7IT-WX. If no packets are shown the sender has not sent any weather packets the latest 10 day(s).
| Time | Temp. | Humidity | Pressure | Rain* | Wind** | Luminosity | Snow |
|---|---|---|---|---|---|---|---|
| 1777440612 | 6.67° C | 42% | 979 hPa | - | - | - | - |
| 1777440312 | 5.56° C | 43% | 979 hPa | - | - | - | - |
| 1777440016 | 5° C | 44% | 979 hPa | - | - | - | - |
| 1777439716 | 4.44° C | 45% | 979 hPa | - | - | - | - |
| 1777439415 | 3.89° C | 47% | 979 hPa | - | - | - | - |
| 1777439115 | 3.33° C | 49% | 979 hPa | - | - | - | - |
| 1777438818 | 2.78° C | 50% | 979 hPa | - | - | - | - |
| 1777438514 | 1.67° C | 51% | 979 hPa | - | - | - | - |
| 1777438214 | 1.11° C | 53% | 979 hPa | - | - | - | - |
| 1777437913 | 0.56° C | 54% | 979 hPa | - | - | - | - |
| 1777437612 | 0° C | 54% | 979 hPa | - | - | - | - |
| 1777437312 | 0° C | 54% | 979 hPa | - | - | - | - |
| 1777437017 | 0° C | 55% | 979 hPa | - | - | - | - |
| 1777436716 | -0.56° C | 55% | 978 hPa | - | - | - | - |
| 1777433115 | -0.56° C | 55% | 978 hPa | - | - | - | - |
| 1777430716 | -0.56° C | 54% | 978 hPa | - | - | - | - |
| 1777427115 | 0° C | 52% | 978 hPa | - | - | - | - |
| 1777425312 | 0.56° C | 50% | 978 hPa | - | - | - | - |
| 1777424716 | 0.56° C | 51% | 978 hPa | - | - | - | - |
| 1777423514 | 1.11° C | 51% | 978 hPa | - | - | - | - |
| 1777422913 | 1.11° C | 51% | 978 hPa | - | - | - | - |
| 1777414504 | 3.89° C | 46% | 977 hPa | - | - | - | - |
| 1777411504 | 5.56° C | 43% | 976 hPa | - | - | - | - |
| 1777410308 | 6.11° C | 42% | 976 hPa | - | - | - | - |
| 1777410010 | 6.11° C | 42% | 976 hPa | - | - | - | - |
* Rain since midnight (hover to see other rain measurements)
** Current wind speed in m/s (hover to see current wind gust speed)